createdAt,value
2023-05-02T00:00:26.219Z,52.15
2023-05-02T00:01:16.457Z,52.25
2023-05-02T00:02:17.111Z,52.06
2023-05-02T00:03:17.185Z,52.34
2023-05-02T00:04:16.588Z,51.87
2023-05-02T00:05:16.541Z,51.87
2023-05-02T00:06:16.468Z,51.87
2023-05-02T00:07:16.453Z,51.48
2023-05-02T00:08:16.466Z,51.48
2023-05-02T00:09:16.528Z,51.87
2023-05-02T00:10:16.457Z,51.87
2023-05-02T00:11:17.134Z,51.87
2023-05-02T00:12:17.120Z,51.77
2023-05-02T00:13:17.127Z,51.77
2023-05-02T00:14:17.167Z,52.06
2023-05-02T00:15:16.427Z,52.06
2023-05-02T00:16:17.526Z,51.97
2023-05-02T00:17:16.509Z,52.25
2023-05-02T00:18:16.496Z,52.25
2023-05-02T00:19:16.421Z,51.97
2023-05-02T00:20:23.600Z,52.34
2023-05-02T00:22:21.846Z,51.17
2023-05-02T00:23:21.330Z,51.97
2023-05-02T00:25:25.800Z,51.36
2023-05-02T00:26:24.426Z,51.17
2023-05-02T00:28:17.579Z,51.36
2023-05-02T00:29:17.549Z,51.07
2023-05-02T00:31:10.595Z,51.20
2023-05-02T00:32:10.500Z,51.36
2023-05-02T00:34:04.467Z,51.93
2023-05-02T00:35:03.616Z,50.98
2023-05-02T00:37:07.619Z,51.17
2023-05-02T00:38:07.729Z,51.27
2023-05-02T00:40:11.611Z,50.81
2023-05-02T00:41:12.509Z,50.50
2023-05-02T00:43:15.635Z,50.50
2023-05-02T00:44:15.591Z,50.98
2023-05-02T00:46:20.513Z,50.89
2023-05-02T00:47:20.496Z,51.36
2023-05-02T00:49:23.652Z,51.17
2023-05-02T00:50:23.645Z,51.36
2023-05-02T00:52:28.269Z,51.27
2023-05-02T00:53:28.324Z,51.46
2023-05-02T00:55:31.876Z,51.84
2023-05-02T00:56:31.827Z,51.84
2023-05-02T00:58:35.822Z,51.75
2023-05-02T00:59:35.815Z,52.22
2023-05-02T01:01:28.830Z,52.13
2023-05-02T01:02:28.865Z,52.22
2023-05-02T01:04:32.812Z,52.32
2023-05-02T01:05:32.789Z,52.22
2023-05-02T01:07:37.725Z,52.03
2023-05-02T01:08:36.777Z,52.03
2023-05-02T01:10:42.172Z,52.13
2023-05-02T01:11:40.818Z,52.13
2023-05-02T01:13:44.789Z,51.84
2023-05-02T01:14:44.788Z,51.93
2023-05-02T01:16:48.852Z,52.99
2023-05-02T01:17:50.181Z,52.61
2023-05-02T01:19:53.686Z,53.08
2023-05-02T01:20:52.788Z,53.18
2023-05-02T01:22:46.665Z,52.99
2023-05-02T01:23:47.670Z,53.08
2023-05-02T01:24:45.920Z,53.47
2023-05-02T01:25:45.921Z,53.18
2023-05-02T01:26:46.670Z,53.28
2023-05-02T01:27:45.938Z,53.08
2023-05-02T01:28:46.675Z,53.66
2023-05-02T01:29:45.949Z,53.85
2023-05-02T01:30:45.900Z,54.33
2023-05-02T01:31:46.055Z,54.14
2023-05-02T01:32:45.991Z,53.75
2023-05-02T01:33:45.971Z,53.94
2023-05-02T01:34:46.407Z,54.14
2023-05-02T01:35:45.878Z,54.04
2023-05-02T01:36:45.878Z,54.61
2023-05-02T01:37:45.966Z,54.90
2023-05-02T01:38:46.681Z,54.80
2023-05-02T01:39:47.257Z,54.90
2023-05-02T01:40:45.869Z,54.71
2023-05-02T01:41:45.885Z,54.71
2023-05-02T01:42:45.892Z,54.71
2023-05-02T01:43:46.677Z,54.80
2023-05-02T01:44:47.268Z,55.00
2023-05-02T01:45:45.898Z,55.29
2023-05-02T01:46:46.726Z,55.19
2023-05-02T01:47:45.921Z,55.38
2023-05-02T01:48:45.884Z,55.47
2023-05-02T01:49:45.891Z,54.80
2023-05-02T01:50:45.864Z,55.19
2023-05-02T01:51:46.705Z,55.67
2023-05-02T01:52:48.842Z,55.76
2023-05-02T01:53:45.906Z,55.96
2023-05-02T01:54:45.848Z,55.96
2023-05-02T01:55:45.860Z,55.93
2023-05-02T01:56:46.686Z,56.05
2023-05-02T01:57:47.276Z,56.05
2023-05-02T01:58:45.846Z,56.05
2023-05-02T01:59:46.689Z,56.15
2023-05-02T02:00:45.885Z,56.53
2023-05-02T02:01:45.834Z,56.05
2023-05-02T02:02:45.851Z,56.53
2023-05-02T02:03:47.208Z,57.20
2023-05-02T02:04:45.952Z,56.98
2023-05-02T02:05:46.753Z,56.98
2023-05-02T02:06:45.874Z,57.20
2023-05-02T02:07:45.824Z,56.98
2023-05-02T02:08:45.835Z,57.26
2023-05-02T02:09:45.850Z,57.84
2023-05-02T02:10:47.186Z,57.97
2023-05-02T02:11:45.913Z,57.93
2023-05-02T02:12:45.807Z,57.84
2023-05-02T02:13:45.806Z,57.84
2023-05-02T02:14:45.793Z,57.75
2023-05-02T02:15:45.838Z,57.93
2023-05-02T02:16:45.892Z,58.12
2023-05-02T02:17:45.823Z,57.84
2023-05-02T02:18:45.800Z,57.75
2023-05-02T02:19:45.804Z,58.03
2023-05-02T02:20:45.784Z,58.32
2023-05-02T02:21:45.782Z,58.41
2023-05-02T02:22:45.805Z,58.32
2023-05-02T02:23:45.779Z,58.03
2023-05-02T02:24:45.778Z,58.51
2023-05-02T02:25:45.784Z,58.89
2023-05-02T02:26:47.186Z,58.98
2023-05-02T02:27:45.789Z,58.70
2023-05-02T02:28:45.773Z,58.98
2023-05-02T02:29:45.802Z,58.98
2023-05-02T02:30:45.776Z,58.80
2023-05-02T02:31:45.765Z,59.08
2023-05-02T02:32:45.794Z,58.70
2023-05-02T02:33:45.763Z,58.98
2023-05-02T02:34:47.188Z,58.51
2023-05-02T02:35:46.756Z,59.27
2023-05-02T02:36:45.778Z,58.61
2023-05-02T02:37:45.753Z,58.80
2023-05-02T02:38:45.782Z,58.80
2023-05-02T02:39:45.754Z,59.27
2023-05-02T02:40:45.796Z,59.08
2023-05-02T02:41:45.734Z,58.80
2023-05-02T02:42:45.742Z,59.18
2023-05-02T02:43:46.267Z,59.37
2023-05-02T02:44:45.726Z,59.75
2023-05-02T02:45:45.867Z,59.47
2023-05-02T02:46:45.830Z,59.56
2023-05-02T02:47:46.764Z,59.75
2023-05-02T02:48:45.716Z,59.66
2023-05-02T02:49:45.725Z,59.84
2023-05-02T02:50:45.719Z,60.04
2023-05-02T02:51:45.748Z,60.01
2023-05-02T02:52:45.698Z,60.30
2023-05-02T02:53:45.707Z,59.72
2023-05-02T02:54:45.703Z,60.20
2023-05-02T02:55:45.710Z,59.53
2023-05-02T02:56:45.700Z,60.13
2023-05-02T02:57:45.688Z,60.10
2023-05-02T02:58:45.703Z,60.20
2023-05-02T02:59:45.791Z,59.53
2023-05-02T03:00:47.192Z,59.44
2023-05-02T03:01:46.201Z,59.72
2023-05-02T03:02:46.253Z,60.10
2023-05-02T03:03:45.694Z,60.10
2023-05-02T03:04:45.721Z,59.81
2023-05-02T03:05:45.664Z,60.30
2023-05-02T03:06:46.235Z,60.39
2023-05-02T03:07:45.681Z,60.10
2023-05-02T03:08:46.182Z,60.01
2023-05-02T03:09:46.199Z,60.30
2023-05-02T03:10:45.660Z,60.10
2023-05-02T03:11:45.679Z,59.81
2023-05-02T03:12:45.653Z,60.10
2023-05-02T03:13:45.687Z,60.49
2023-05-02T03:14:45.650Z,60.30
2023-05-02T03:15:45.705Z,60.49
2023-05-02T03:16:45.702Z,60.39
2023-05-02T03:17:45.694Z,60.39
2023-05-02T03:18:45.634Z,60.39
2023-05-02T03:19:45.735Z,60.58
2023-05-02T03:20:45.641Z,61.25
2023-05-02T03:21:45.658Z,61.06
2023-05-02T03:22:45.628Z,61.63
2023-05-02T03:23:45.640Z,61.82
2023-05-02T03:24:45.630Z,60.87
2023-05-02T03:25:46.214Z,61.06
2023-05-02T03:26:46.778Z,61.63
2023-05-02T03:27:45.611Z,61.82
2023-05-02T03:28:47.701Z,61.63
2023-05-02T03:29:45.600Z,62.11
2023-05-02T03:30:45.607Z,61.92
2023-05-02T03:31:46.272Z,62.01
2023-05-02T03:32:46.722Z,62.68
2023-05-02T03:33:45.611Z,62.40
2023-05-02T03:34:45.601Z,62.49
2023-05-02T03:35:45.587Z,62.40
2023-05-02T03:36:45.590Z,62.59
2023-05-02T03:37:45.630Z,62.78
2023-05-02T03:38:45.589Z,63.07
2023-05-02T03:39:46.207Z,62.97
2023-05-02T03:40:45.602Z,63.07
2023-05-02T03:41:46.206Z,62.68
2023-05-02T03:42:45.598Z,62.97
2023-05-02T03:43:46.209Z,63.07
2023-05-02T03:44:45.562Z,63.16
2023-05-02T03:45:48.135Z,63.45
2023-05-02T03:46:46.263Z,63.64
2023-05-02T03:47:45.577Z,63.73
2023-05-02T03:48:46.270Z,64.02
2023-05-02T03:49:45.548Z,64.31
2023-05-02T03:50:45.566Z,63.93
2023-05-02T03:51:45.540Z,64.50
2023-05-02T03:52:45.542Z,64.12
2023-05-02T03:53:45.534Z,64.31
2023-05-02T03:54:46.650Z,64.59
2023-05-02T03:55:45.552Z,64.31
2023-05-02T03:56:45.569Z,64.50
2023-05-02T03:57:46.216Z,64.69
2023-05-02T03:58:45.522Z,64.88
2023-05-02T03:59:45.547Z,64.78
2023-05-02T04:00:45.535Z,64.88
2023-05-02T04:01:45.540Z,65.36
2023-05-02T04:02:45.646Z,64.98
2023-05-02T04:03:45.759Z,65.04
2023-05-02T04:04:46.280Z,65.36
2023-05-02T04:05:45.523Z,65.33
2023-05-02T04:06:46.237Z,65.23
2023-05-02T04:07:45.531Z,65.80
2023-05-02T04:08:45.553Z,65.90
2023-05-02T04:09:46.221Z,65.80
2023-05-02T04:10:45.491Z,65.90
2023-05-02T04:11:46.219Z,66.19
2023-05-02T04:12:46.654Z,66.19
2023-05-02T04:13:46.222Z,65.71
2023-05-02T04:14:45.479Z,66.00
2023-05-02T04:15:45.509Z,66.09
2023-05-02T04:16:45.547Z,66.09
2023-05-02T04:17:45.513Z,66.38
2023-05-02T04:18:47.720Z,66.28
2023-05-02T04:19:45.475Z,66.66
2023-05-02T04:20:45.477Z,66.47
2023-05-02T04:21:46.220Z,66.56
2023-05-02T04:22:46.281Z,66.47
2023-05-02T04:23:45.456Z,66.28
2023-05-02T04:24:45.457Z,66.56
2023-05-02T04:25:45.464Z,66.28
2023-05-02T04:26:45.449Z,66.38
2023-05-02T04:27:45.457Z,66.56
2023-05-02T04:28:45.451Z,65.80
2023-05-02T04:29:45.474Z,66.19
2023-05-02T04:30:46.290Z,66.38
2023-05-02T04:31:45.437Z,66.09
2023-05-02T04:32:46.255Z,66.09
2023-05-02T04:33:45.438Z,65.52
2023-05-02T04:34:45.470Z,66.09
2023-05-02T04:35:47.736Z,66.19
2023-05-02T04:36:45.425Z,66.28
2023-05-02T04:37:45.415Z,66.09
2023-05-02T04:38:45.426Z,65.71
2023-05-02T04:39:45.404Z,65.71
2023-05-02T04:40:46.805Z,65.42
2023-05-02T04:41:45.420Z,65.52
2023-05-02T04:42:45.904Z,65.42
2023-05-02T04:43:45.408Z,65.23
2023-05-02T04:44:45.395Z,65.80
2023-05-02T04:45:45.409Z,66.09
2023-05-02T04:46:45.575Z,66.09
2023-05-02T04:47:46.752Z,65.90
2023-05-02T04:48:45.400Z,66.09
2023-05-02T04:49:45.403Z,66.19
2023-05-02T04:50:45.376Z,66.28
2023-05-02T04:51:46.228Z,66.28
2023-05-02T04:52:45.868Z,65.80
2023-05-02T04:53:45.366Z,65.61
2023-05-02T04:54:45.411Z,65.71
2023-05-02T04:55:45.394Z,65.71
2023-05-02T04:56:45.364Z,65.42
2023-05-02T04:57:45.408Z,65.90
2023-05-02T04:58:45.381Z,65.23
2023-05-02T04:59:45.350Z,64.88
2023-05-02T05:00:46.231Z,65.33
2023-05-02T05:01:45.422Z,65.17
2023-05-02T05:02:46.276Z,64.94
2023-05-02T05:03:45.466Z,65.23
2023-05-02T05:04:45.373Z,64.94
2023-05-02T05:05:45.386Z,65.33
2023-05-02T05:06:45.416Z,64.94
2023-05-02T05:07:45.362Z,64.94
2023-05-02T05:08:45.355Z,64.56
2023-05-02T05:09:45.355Z,65.90
2023-05-02T05:10:46.727Z,66.95
2023-05-02T05:11:45.325Z,68.04
2023-05-02T05:12:45.325Z,66.89
2023-05-02T05:13:45.319Z,65.93
2023-05-02T05:14:45.369Z,65.84
2023-05-02T05:15:45.420Z,65.36
2023-05-02T05:16:45.357Z,64.98
2023-05-02T05:17:46.266Z,65.55
2023-05-02T05:18:45.313Z,65.36
2023-05-02T05:19:45.291Z,64.50
2023-05-02T05:20:45.337Z,64.98
2023-05-02T05:21:46.240Z,65.26
2023-05-02T05:22:46.258Z,64.98
2023-05-02T05:23:46.363Z,65.26
2023-05-02T05:24:46.237Z,65.07
2023-05-02T05:25:46.241Z,65.17
2023-05-02T05:26:46.239Z,65.45
2023-05-02T05:27:46.740Z,65.17
2023-05-02T05:28:46.244Z,65.17
2023-05-02T05:29:46.238Z,65.84
2023-05-02T05:30:46.250Z,66.60
2023-05-02T05:31:45.789Z,68.90
2023-05-02T05:32:45.293Z,68.84
2023-05-02T05:33:45.310Z,69.21
2023-05-02T05:34:45.263Z,68.07
2023-05-02T05:35:45.274Z,66.63
2023-05-02T05:36:45.255Z,65.97
2023-05-02T05:37:46.240Z,65.39
2023-05-02T05:38:45.247Z,64.72
2023-05-02T05:39:46.732Z,64.34
2023-05-02T05:40:45.280Z,64.62
2023-05-02T05:41:45.264Z,64.72
2023-05-02T05:42:45.286Z,64.72
2023-05-02T05:43:45.251Z,65.01
2023-05-02T05:44:45.242Z,65.01
2023-05-02T05:45:46.235Z,64.53
2023-05-02T05:46:45.311Z,65.39
2023-05-02T05:47:46.338Z,64.53
2023-05-02T05:48:45.258Z,64.82
2023-05-02T05:49:45.246Z,64.66
2023-05-02T05:50:45.284Z,64.66
2023-05-02T05:51:45.280Z,64.28
2023-05-02T05:52:45.744Z,64.28
2023-05-02T05:53:45.246Z,64.18
2023-05-02T05:54:45.757Z,64.18
2023-05-02T05:55:45.745Z,64.09
2023-05-02T05:56:45.751Z,64.22
2023-05-02T05:57:47.822Z,63.89
2023-05-02T05:58:45.295Z,63.83
2023-05-02T05:59:45.280Z,64.31
2023-05-02T06:00:45.291Z,63.83
2023-05-02T06:01:45.836Z,64.25
2023-05-02T06:02:45.361Z,63.86
2023-05-02T06:03:45.486Z,62.90
2023-05-02T06:04:46.309Z,62.43
2023-05-02T06:05:46.251Z,61.94
2023-05-02T06:06:45.376Z,61.94
2023-05-02T06:07:46.265Z,61.66
2023-05-02T06:08:45.344Z,61.28
2023-05-02T06:09:45.342Z,61.76
2023-05-02T06:10:45.325Z,62.33
2023-05-02T06:11:46.276Z,62.71
2023-05-02T06:12:47.274Z,62.04
2023-05-02T06:13:46.254Z,62.04
2023-05-02T06:14:45.377Z,61.85
2023-05-02T06:15:45.405Z,62.14
2023-05-02T06:16:45.399Z,62.14
2023-05-02T06:17:46.469Z,62.23
2023-05-02T06:18:46.262Z,62.71
2023-05-02T06:19:45.402Z,62.62
2023-05-02T06:20:45.409Z,62.23
2023-05-02T06:21:53.287Z,62.36
2023-05-02T06:23:50.309Z,62.36
2023-05-02T06:24:49.444Z,61.21
2023-05-02T06:26:55.419Z,60.57
2023-05-02T06:27:53.479Z,61.15
2023-05-02T06:29:57.763Z,60.67
2023-05-02T06:30:58.500Z,60.19
2023-05-02T06:31:58.465Z,60.67
2023-05-02T06:32:57.676Z,61.15
2023-05-02T06:33:57.559Z,60.19
2023-05-02T06:34:58.390Z,61.27
2023-05-02T06:35:59.194Z,61.75
2023-05-02T06:36:57.602Z,60.99
2023-05-02T06:37:57.605Z,60.60
2023-05-02T06:38:57.622Z,60.31
2023-05-02T06:39:57.833Z,59.74
2023-05-02T06:40:57.631Z,60.47
2023-05-02T06:41:58.418Z,60.50
2023-05-02T06:42:58.458Z,61.37
2023-05-02T06:43:57.758Z,61.37
2023-05-02T06:44:57.660Z,60.50
2023-05-02T06:45:57.681Z,59.55
2023-05-02T06:46:57.715Z,60.22
2023-05-02T06:47:57.714Z,59.74
2023-05-02T06:48:58.892Z,59.55
2023-05-02T06:49:57.803Z,60.12
2023-05-02T06:50:57.724Z,60.60
2023-05-02T06:51:58.399Z,60.41
2023-05-02T06:52:57.755Z,60.12
2023-05-02T06:53:58.405Z,60.50
2023-05-02T06:54:57.754Z,60.35
2023-05-02T06:55:57.782Z,60.53
2023-05-02T06:56:57.789Z,59.86
2023-05-02T06:57:58.398Z,58.81
2023-05-02T06:58:57.823Z,59.12
2023-05-02T06:59:58.093Z,58.64
2023-05-02T07:00:57.908Z,58.45
2023-05-02T07:01:57.868Z,58.94
2023-05-02T07:02:58.437Z,58.45
2023-05-02T07:03:57.894Z,58.64
2023-05-02T07:04:57.865Z,58.17
2023-05-02T07:05:57.877Z,57.95
2023-05-02T07:06:57.918Z,58.33
2023-05-02T07:07:58.417Z,58.91
2023-05-02T07:08:57.896Z,59.86
2023-05-02T07:09:58.073Z,59.93
2023-05-02T07:10:57.918Z,59.55
2023-05-02T07:11:58.495Z,59.64
2023-05-02T07:12:57.935Z,60.60
2023-05-02T07:13:58.954Z,61.08
2023-05-02T07:14:58.918Z,61.27
2023-05-02T07:15:57.956Z,61.56
2023-05-02T07:16:57.984Z,61.08
2023-05-02T07:17:58.042Z,60.57
2023-05-02T07:18:57.970Z,61.43
2023-05-02T07:19:59.041Z,61.91
2023-05-02T07:21:01.088Z,62.10
2023-05-02T07:21:57.993Z,62.59
2023-05-02T07:22:58.002Z,62.68
2023-05-02T07:23:57.996Z,62.77
2023-05-02T07:24:58.029Z,63.13
2023-05-02T07:25:58.917Z,63.32
2023-05-02T07:26:58.032Z,63.32
2023-05-02T07:27:58.953Z,63.42
2023-05-02T07:28:58.036Z,63.22
2023-05-02T07:29:58.278Z,63.89
2023-05-02T07:30:58.048Z,63.99
2023-05-02T07:31:58.072Z,64.37
2023-05-02T07:32:58.152Z,64.37
2023-05-02T07:33:58.052Z,64.37
2023-05-02T07:34:58.051Z,64.28
2023-05-02T07:35:58.038Z,64.56
2023-05-02T07:36:58.038Z,64.18
2023-05-02T07:37:58.063Z,64.92
2023-05-02T07:38:58.047Z,65.30
2023-05-02T07:39:58.237Z,65.78
2023-05-02T07:40:58.098Z,65.88
2023-05-02T07:41:58.928Z,65.88
2023-05-02T07:42:58.062Z,65.88
2023-05-02T07:43:58.055Z,65.68
2023-05-02T07:44:58.068Z,66.25
2023-05-02T07:45:58.146Z,66.06
2023-05-02T07:46:58.927Z,65.78
2023-05-02T07:47:58.154Z,66.06
2023-05-02T07:48:58.084Z,65.49
2023-05-02T07:49:59.293Z,65.88
2023-05-02T07:50:58.111Z,66.45
2023-05-02T07:51:58.126Z,66.25
2023-05-02T07:52:59.014Z,65.88
2023-05-02T07:53:58.079Z,66.06
2023-05-02T07:54:58.076Z,66.06
2023-05-02T07:55:58.101Z,66.25
2023-05-02T07:56:58.341Z,66.64
2023-05-02T07:57:58.084Z,66.74
2023-05-02T07:58:58.075Z,66.83
2023-05-02T07:59:58.200Z,67.02
2023-05-02T08:00:58.066Z,66.93
2023-05-02T08:01:58.086Z,67.08
2023-05-02T08:02:58.224Z,66.99
2023-05-02T08:03:58.318Z,67.27
2023-05-02T08:04:58.598Z,67.27
2023-05-02T08:05:58.063Z,68.13
2023-05-02T08:06:58.154Z,68.33
2023-05-02T08:07:58.072Z,69.09
2023-05-02T08:08:58.063Z,69.09
2023-05-02T08:09:58.087Z,69.09
2023-05-02T08:10:58.053Z,68.90
2023-05-02T08:11:59.519Z,68.80
2023-05-02T08:12:58.071Z,69.67
2023-05-02T08:13:58.071Z,69.19
2023-05-02T08:14:59.010Z,69.29
2023-05-02T08:15:58.177Z,69.29
2023-05-02T08:16:59.451Z,69.86
2023-05-02T08:17:58.952Z,69.86
2023-05-02T08:18:58.084Z,69.48
2023-05-02T08:19:58.280Z,69.86
2023-05-02T08:20:58.057Z,69.67
2023-05-02T08:21:58.061Z,69.57
2023-05-02T08:22:59.933Z,70.62
2023-05-02T08:23:58.136Z,70.43
2023-05-02T08:24:58.075Z,70.15
2023-05-02T08:25:58.560Z,69.57
2023-05-02T08:26:58.964Z,69.57
2023-05-02T08:27:58.942Z,69.86
2023-05-02T08:28:58.942Z,70.53
2023-05-02T08:30:00.668Z,70.43
2023-05-02T08:30:58.047Z,69.76
2023-05-02T08:31:58.100Z,69.86
2023-05-02T08:32:58.071Z,69.95
2023-05-02T08:33:58.138Z,70.72
2023-05-02T08:34:58.272Z,71.01
2023-05-02T08:35:58.054Z,71.01
2023-05-02T08:36:58.534Z,70.28
2023-05-02T08:37:58.532Z,70.09
2023-05-02T08:38:58.030Z,69.99
2023-05-02T08:39:58.046Z,69.51
2023-05-02T08:40:58.042Z,69.89
2023-05-02T08:41:59.449Z,69.70
2023-05-02T08:42:58.038Z,69.70
2023-05-02T08:43:58.948Z,69.51
2023-05-02T08:44:58.055Z,68.65
2023-05-02T08:45:59.519Z,68.36
2023-05-02T08:46:58.117Z,68.74
2023-05-02T08:47:58.096Z,68.36
2023-05-02T08:48:58.033Z,69.03
2023-05-02T08:49:58.338Z,69.03
2023-05-02T08:50:58.057Z,69.13
2023-05-02T08:51:58.031Z,69.99
2023-05-02T08:52:58.022Z,69.99
2023-05-02T08:53:58.034Z,69.67
2023-05-02T08:54:58.135Z,69.23
2023-05-02T08:55:58.527Z,69.23
2023-05-02T08:56:58.024Z,69.03
2023-05-02T08:57:58.026Z,68.94
2023-05-02T08:58:59.949Z,69.32
2023-05-02T08:59:58.950Z,68.84
2023-05-02T09:00:58.060Z,68.27
2023-05-02T09:01:58.048Z,68.17
2023-05-02T09:02:58.085Z,68.55
2023-05-02T09:03:58.062Z,68.94
2023-05-02T09:04:58.305Z,67.98
2023-05-02T09:05:58.058Z,68.17
2023-05-02T09:06:58.023Z,68.55
2023-05-02T09:07:58.037Z,68.55
2023-05-02T09:08:58.037Z,67.85
2023-05-02T09:09:58.010Z,68.62
2023-05-02T09:10:58.016Z,68.33
2023-05-02T09:11:58.028Z,68.42
2023-05-02T09:12:58.023Z,68.71
2023-05-02T09:13:58.018Z,69.19
2023-05-02T09:14:58.224Z,69.09
2023-05-02T09:15:58.960Z,69.86
2023-05-02T09:16:58.154Z,69.76
2023-05-02T09:17:58.097Z,69.86
2023-05-02T09:18:58.018Z,69.76
2023-05-02T09:19:58.009Z,70.05
2023-05-02T09:20:58.008Z,69.57
2023-05-02T09:21:58.015Z,69.67
2023-05-02T09:22:58.002Z,70.15
2023-05-02T09:23:58.984Z,70.53
2023-05-02T09:24:58.249Z,69.76
2023-05-02T09:25:58.966Z,70.05
2023-05-02T09:26:58.001Z,69.95
2023-05-02T09:27:58.958Z,70.05
2023-05-02T09:28:58.058Z,69.57
2023-05-02T09:29:58.031Z,70.15
2023-05-02T09:30:58.993Z,70.05
2023-05-02T09:31:58.092Z,69.95
2023-05-02T09:32:58.065Z,70.09
2023-05-02T09:33:58.003Z,69.67
2023-05-02T09:34:59.146Z,70.53
2023-05-02T09:35:58.006Z,70.43
2023-05-02T09:36:57.988Z,70.05
2023-05-02T09:37:57.988Z,69.86
2023-05-02T09:38:58.006Z,69.86
2023-05-02T09:39:58.002Z,69.76
2023-05-02T09:40:58.985Z,70.43
2023-05-02T09:41:57.985Z,70.24
2023-05-02T09:42:58.968Z,70.62
2023-05-02T09:43:58.008Z,70.34
2023-05-02T09:44:58.103Z,71.01
2023-05-02T09:45:58.027Z,70.43
2023-05-02T09:46:57.982Z,70.81
2023-05-02T09:47:58.010Z,71.11
2023-05-02T09:48:57.990Z,71.39
2023-05-02T09:49:57.981Z,71.39
2023-05-02T09:50:57.987Z,71.48
2023-05-02T09:51:57.970Z,71.30
2023-05-02T09:52:57.986Z,71.58
2023-05-02T09:53:58.011Z,71.93
2023-05-02T09:54:58.304Z,72.16
2023-05-02T09:55:58.091Z,71.87
2023-05-02T09:56:57.970Z,71.93
2023-05-02T09:57:58.007Z,72.63
2023-05-02T09:59:00.967Z,72.60
2023-05-02T09:59:57.982Z,72.73
2023-05-02T10:00:57.984Z,72.83
2023-05-02T10:01:58.077Z,71.68
2023-05-02T10:02:58.029Z,71.48
2023-05-02T10:03:58.012Z,71.55
2023-05-02T10:04:58.877Z,71.64
2023-05-02T10:05:57.960Z,71.73
2023-05-02T10:06:58.473Z,71.73
2023-05-02T10:07:58.520Z,71.16
2023-05-02T10:08:57.976Z,71.45
2023-05-02T10:09:58.224Z,71.83
2023-05-02T10:10:57.952Z,71.93
2023-05-02T10:11:58.473Z,72.22
2023-05-02T10:12:57.954Z,72.50
2023-05-02T10:13:57.937Z,72.88
2023-05-02T10:14:58.184Z,72.50
2023-05-02T10:15:57.993Z,72.88
2023-05-02T10:16:58.476Z,72.79
2023-05-02T10:17:58.010Z,72.69
2023-05-02T10:18:57.943Z,73.27
2023-05-02T10:19:57.944Z,73.17
2023-05-02T10:20:57.948Z,73.08
2023-05-02T10:21:58.739Z,73.27
2023-05-02T10:22:57.936Z,72.79
2023-05-02T10:23:57.932Z,72.69
2023-05-02T10:24:58.195Z,72.88
2023-05-02T10:26:00.040Z,72.69
2023-05-02T10:26:58.086Z,73.08
2023-05-02T10:27:57.933Z,72.79
2023-05-02T10:28:57.950Z,72.79
2023-05-02T10:29:57.930Z,72.63
2023-05-02T10:30:57.976Z,72.79
2023-05-02T10:31:58.031Z,72.79
2023-05-02T10:32:59.112Z,72.69
2023-05-02T10:33:57.952Z,72.60
2023-05-02T10:34:57.975Z,73.08
2023-05-02T10:35:57.918Z,73.55
2023-05-02T10:36:57.907Z,73.46
2023-05-02T10:37:57.926Z,73.84
2023-05-02T10:38:57.919Z,73.75
2023-05-02T10:39:58.487Z,74.13
2023-05-02T10:40:57.930Z,74.32
2023-05-02T10:41:57.917Z,74.85
2023-05-02T10:42:57.893Z,74.95
2023-05-02T10:43:57.913Z,75.05
2023-05-02T10:44:58.074Z,74.85
2023-05-02T10:45:57.933Z,74.85
2023-05-02T10:46:58.028Z,75.24
2023-05-02T10:47:57.988Z,76.29
2023-05-02T10:48:57.890Z,75.81
2023-05-02T10:49:57.984Z,75.91
2023-05-02T10:50:58.502Z,76.20
2023-05-02T10:51:57.883Z,76.16
2023-05-02T10:52:58.481Z,75.87
2023-05-02T10:53:57.895Z,76.45
2023-05-02T10:54:58.040Z,76.54
2023-05-02T10:55:57.885Z,76.16
2023-05-02T10:56:58.482Z,76.92
2023-05-02T10:57:57.915Z,77.11
2023-05-02T10:58:57.896Z,76.92
2023-05-02T10:59:57.895Z,77.30
2023-05-02T11:00:58.021Z,76.73
2023-05-02T11:01:57.940Z,76.25
2023-05-02T11:02:58.134Z,75.87
2023-05-02T11:03:57.876Z,76.54
2023-05-02T11:04:58.157Z,76.64
2023-05-02T11:05:58.488Z,76.54
2023-05-02T11:06:57.857Z,76.92
2023-05-02T11:07:57.899Z,77.01
2023-05-02T11:08:57.852Z,76.64
2023-05-02T11:09:57.847Z,76.64
2023-05-02T11:10:57.858Z,76.25
2023-05-02T11:11:57.846Z,75.96
2023-05-02T11:12:57.865Z,76.16
2023-05-02T11:13:57.853Z,75.64
2023-05-02T11:14:58.099Z,76.21
2023-05-02T11:15:57.848Z,76.21
2023-05-02T11:16:57.919Z,76.40
2023-05-02T11:17:58.513Z,76.21
2023-05-02T11:18:57.839Z,76.40
2023-05-02T11:19:58.517Z,76.40
2023-05-02T11:20:59.107Z,76.18
2023-05-02T11:21:57.840Z,76.21
2023-05-02T11:22:59.505Z,76.40
2023-05-02T11:23:58.419Z,76.88
2023-05-02T11:24:58.663Z,75.93
2023-05-02T11:25:58.495Z,75.32
2023-05-02T11:26:58.988Z,75.32
2023-05-02T11:27:57.866Z,75.13
2023-05-02T11:28:57.812Z,74.78
2023-05-02T11:29:57.826Z,74.84
2023-05-02T11:30:58.536Z,73.98
2023-05-02T11:31:57.854Z,73.88
2023-05-02T11:32:57.847Z,72.93
2023-05-02T11:33:57.863Z,73.22
2023-05-02T11:34:59.213Z,74.27
2023-05-02T11:35:57.789Z,73.22
2023-05-02T11:36:57.793Z,72.97
2023-05-02T11:37:57.787Z,73.16
2023-05-02T11:38:57.781Z,73.16
2023-05-02T11:39:58.510Z,72.58
2023-05-02T11:40:57.794Z,72.97
2023-05-02T11:41:57.794Z,72.20
2023-05-02T11:42:59.007Z,71.25
2023-05-02T11:43:57.815Z,70.96
2023-05-02T11:44:58.923Z,70.87
2023-05-02T11:45:57.826Z,70.87
2023-05-02T11:46:57.847Z,69.72
2023-05-02T11:47:57.808Z,68.38
2023-05-02T11:48:57.769Z,68.96
2023-05-02T11:49:57.771Z,68.96
2023-05-02T11:50:57.763Z,69.53
2023-05-02T11:51:57.996Z,69.05
2023-05-02T11:52:58.517Z,69.05
2023-05-02T11:53:58.501Z,69.05
2023-05-02T11:54:58.549Z,69.05
2023-05-02T11:55:59.095Z,68.00
2023-05-02T11:56:57.749Z,68.10
2023-05-02T11:57:58.543Z,68.19
2023-05-02T11:58:57.729Z,68.29
2023-05-02T11:59:57.738Z,67.24
2023-05-02T12:00:57.769Z,68.10
2023-05-02T12:01:57.754Z,68.19
2023-05-02T12:02:57.826Z,67.55
2023-05-02T12:03:57.788Z,67.71
2023-05-02T12:04:57.741Z,68.38
2023-05-02T12:05:58.559Z,67.75
2023-05-02T12:06:57.785Z,67.55
2023-05-02T12:07:58.519Z,66.50
2023-05-02T12:08:57.720Z,66.76
2023-05-02T12:09:57.724Z,66.47
2023-05-02T12:10:57.736Z,66.66
2023-05-02T12:11:58.552Z,67.05
2023-05-02T12:12:58.523Z,66.85
2023-05-02T12:13:57.732Z,65.71
2023-05-02T12:14:59.217Z,65.80
2023-05-02T12:15:57.762Z,66.38
2023-05-02T12:16:57.740Z,67.14
2023-05-02T12:17:57.819Z,66.76
2023-05-02T12:18:57.734Z,66.85
2023-05-02T12:19:57.772Z,67.62
2023-05-02T12:20:57.700Z,67.05
2023-05-02T12:21:58.524Z,67.05
2023-05-02T12:22:57.704Z,67.33
2023-05-02T12:23:57.699Z,67.52
2023-05-02T12:25:00.255Z,67.27
2023-05-02T12:25:57.692Z,67.18
2023-05-02T12:26:59.009Z,66.31
2023-05-02T12:27:57.696Z,65.17
2023-05-02T12:28:57.677Z,65.93
2023-05-02T12:29:57.688Z,65.84
2023-05-02T12:30:57.686Z,65.33
2023-05-02T12:31:57.722Z,65.52
2023-05-02T12:32:58.566Z,65.33
2023-05-02T12:33:58.523Z,65.23
2023-05-02T12:34:58.513Z,65.14
2023-05-02T12:35:57.775Z,65.52
2023-05-02T12:36:57.677Z,65.80
2023-05-02T12:37:57.674Z,65.90
2023-05-02T12:38:58.519Z,66.19
2023-05-02T12:39:58.574Z,66.09
2023-05-02T12:40:58.589Z,65.90
2023-05-02T12:41:57.653Z,65.61
2023-05-02T12:42:57.678Z,65.80
2023-05-02T12:43:57.644Z,65.80
2023-05-02T12:44:57.661Z,65.14
2023-05-02T12:45:57.654Z,65.61
2023-05-02T12:46:59.265Z,65.84
2023-05-02T12:47:58.553Z,66.28
2023-05-02T12:48:57.643Z,66.13
2023-05-02T12:49:58.673Z,65.64
2023-05-02T12:50:57.644Z,64.69
2023-05-02T12:51:57.658Z,64.65
2023-05-02T12:52:57.656Z,64.56
2023-05-02T12:53:58.544Z,65.42
2023-05-02T12:54:57.640Z,64.94
2023-05-02T12:55:58.775Z,64.56
2023-05-02T12:56:57.637Z,64.47
2023-05-02T12:57:57.629Z,64.94
2023-05-02T12:59:00.520Z,65.61
2023-05-02T13:03:02.002Z,64.31
2023-05-02T13:04:01.312Z,64.22
2023-05-02T13:05:01.232Z,64.40
2023-05-02T13:06:01.355Z,63.54
2023-05-02T13:07:01.219Z,64.40
2023-05-02T13:08:01.202Z,64.31
2023-05-02T13:09:01.272Z,64.40
2023-05-02T13:10:01.636Z,64.59
2023-05-02T13:11:01.383Z,63.45
2023-05-02T13:12:01.210Z,62.97
2023-05-02T13:13:01.200Z,63.26
2023-05-02T13:14:01.185Z,63.26
2023-05-02T13:15:01.305Z,63.16
2023-05-02T13:16:01.775Z,63.73
2023-05-02T13:17:01.296Z,63.26
2023-05-02T13:18:01.395Z,63.16
2023-05-02T13:19:01.215Z,63.57
2023-05-02T13:20:02.272Z,62.33